Broome International Airport
YBRM : now visible

Airfield :











YOU CAN JOIN US ON...

 
LOGIN :

Register | Disclaimer

   EN    FR    IT 

 









Legend :    VFR   Marginal VFR   IFR   Intensive IFR   Very Intensive IFR
Visi :
Ceiling :
>= 8 km
>= 3000ft
5 to 8 km
1000 to 3000 ft
1500m to 5 km
500 to 1000 ft
800 to 1500m
200 to 500 ft
< 800m
< 200 ft
Symbols :   Thunderstorms  Fog  Heavy snow  Heavy precipitations  Wind > 20 kt






- Airport Elevation : 56 ft
- IATA code : BME


YBRM - Broome International

CURRENT METAR :
  • 231400Z AUTO 27007KT 9999 // NCD 31/25 Q1008

EXPIRED METARs :
  • 231330Z AUTO 31006KT 9999 // NCD 30/25 Q1008 RF00.0/000.0
  • 231300Z AUTO 30007KT 9999 // NCD 30/25 Q1008
  • 231230Z AUTO 31008KT 9999 // NCD 31/25 Q1008 RF00.0/000.0
  • 231200Z AUTO 33006KT 9999 // NCD 30/25 Q1007 RF00.0/000.0
  • 231130Z AUTO 01004KT 9999 // NCD 28/22 Q1007 RF00.0/000.0

TAF TAF YBRM
Valid from the 23 at 12:00 until the 24 at 12:00 UTC


231053Z 2312/2412 28010KT 9999 SCT030
FM231600 29008KT 9999 SCT015
FM240100 28010KT 9999 SCT025



MET'MAP, your aeronautical weather chart ! - Copyright ORBIFLY December 2007 - Disclaimer

ORBIFLY MET'MAP TEAM :

Programming & Development : Alexandra Zaïnal
Concept & original design : Baudouin d'Aumeries
Assistance for programming : Marc-Olivier Méhu
Technical & hardware support : Manuel Goepfert

Contact : metmap@orbifly.com




SOURCES & CREDITS :

   NOAA       Earth
Advisory